Time;durP1;ratioP1;P1;durP2;ratioP2;P2;SDS_P1;SDS_P2;PMS_P1;PMS_P2;Temp;Humidity;BMP_temperature;BMP_pressure;BME280_temperature;BME280_humidity;BME280_pressure;Samples;Min_cycle;Max_cycle;Signal;HPM_P1;HPM_P2
2022/10/25 00:01:48;;;;;;;2.20;0.70;;;;;;;11.09;100.00;95718.50;4831969;29;20221;-84
2022/10/25 00:04:14;;;;;;;5.13;1.20;;;;;;;11.05;100.00;95718.00;4834548;29;20196;-83
2022/10/25 00:06:40;;;;;;;5.30;0.90;;;;;;;10.93;100.00;95719.97;4842663;29;20185;-84
2022/10/25 00:09:05;;;;;;;0.93;0.63;;;;;;;10.83;100.00;95727.00;4839633;29;20254;-84
2022/10/25 00:11:31;;;;;;;2.53;0.80;;;;;;;10.75;100.00;95729.50;4846618;29;20193;-84
2022/10/25 00:13:59;;;;;;;2.03;0.80;;;;;;;10.63;100.00;95728.88;4833782;29;20275;-84
2022/10/25 00:16:27;;;;;;;3.17;0.80;;;;;;;10.55;100.00;95728.75;4834504;29;20257;-84
2022/10/25 00:18:53;;;;;;;1.63;0.90;;;;;;;10.59;100.00;95729.28;4830077;29;20243;-83
2022/10/25 00:21:18;;;;;;;3.90;0.83;;;;;;;10.54;100.00;95721.94;4827477;29;20213;-83
2022/10/25 00:23:44;;;;;;;1.80;0.80;;;;;;;10.44;100.00;95731.53;4827925;29;20237;-83
2022/10/25 00:26:10;;;;;;;1.53;0.80;;;;;;;10.41;100.00;95717.03;4832615;29;20562;-83
2022/10/25 00:28:36;;;;;;;2.30;0.90;;;;;;;10.32;100.00;95720.50;4818399;29;20257;-83
2022/10/25 00:31:03;;;;;;;4.97;1.17;;;;;;;10.33;100.00;95724.72;4825882;29;20269;-83
2022/10/25 00:33:32;;;;;;;1.13;0.80;;;;;;;10.38;100.00;95724.31;4840599;29;20197;-84
2022/10/25 00:36:08;;;;;;;3.30;1.10;;;;;;;10.39;100.00;95731.13;4829357;29;20194;-84
2022/10/25 00:38:34;;;;;;;3.50;1.00;;;;;;;10.28;100.00;95716.56;4851771;29;20193;-84
2022/10/25 00:41:00;;;;;;;2.47;1.00;;;;;;;10.35;100.00;95715.03;4832824;29;20275;-84
2022/10/25 00:43:40;;;;;;;3.17;0.80;;;;;;;10.44;100.00;95714.19;4833655;29;20229;-83
2022/10/25 00:46:19;;;;;;;8.70;1.40;;;;;;;10.52;100.00;95717.84;4819391;29;20193;-84
2022/10/25 00:49:02;;;;;;;4.33;1.43;;;;;;;10.70;100.00;95724.75;4846481;29;20209;-84
2022/10/25 00:51:52;;;;;;;3.33;1.17;;;;;;;10.69;100.00;95727.47;4841003;29;20250;-83
2022/10/25 00:54:24;;;;;;;1.50;0.80;;;;;;;10.59;100.00;95726.69;4829352;29;20201;-82
2022/10/25 00:56:49;;;;;;;3.70;0.80;;;;;;;10.58;100.00;95720.69;4830162;29;20603;-83
2022/10/25 00:59:19;;;;;;;2.50;0.80;;;;;;;10.53;100.00;95728.09;4834302;29;20213;-83
2022/10/25 01:01:44;;;;;;;2.80;0.90;;;;;;;10.41;100.00;95724.03;4837319;29;20210;-83
2022/10/25 01:04:12;;;;;;;2.13;1.00;;;;;;;10.33;100.00;95724.72;4855474;29;20676;-82
2022/10/25 01:06:40;;;;;;;3.87;1.10;;;;;;;10.29;100.00;95731.16;4827235;29;20242;-82
2022/10/25 01:09:08;;;;;;;4.07;0.80;;;;;;;10.19;100.00;95725.97;4832936;29;20319;-85
2022/10/25 01:11:35;;;;;;;1.90;1.00;;;;;;;10.21;100.00;95720.66;4834233;29;20559;-83
2022/10/25 01:14:00;;;;;;;1.80;1.07;;;;;;;10.25;100.00;95718.59;4831824;29;20237;-83
2022/10/25 01:16:32;;;;;;;3.47;1.00;;;;;;;10.24;100.00;95722.97;4832727;29;20277;-85
2022/10/25 01:19:38;;;;;;;3.20;1.23;;;;;;;10.23;100.00;95726.53;4834312;29;20193;-86
2022/10/25 01:22:20;;;;;;;2.43;1.00;;;;;;;10.19;100.00;95727.75;4826851;29;20627;-83
2022/10/25 01:25:25;;;;;;;3.43;1.27;;;;;;;10.10;100.00;95726.81;4845962;29;20201;-85
2022/10/25 01:28:11;;;;;;;4.07;1.07;;;;;;;10.14;100.00;95732.53;4834831;29;20572;-84
2022/10/25 01:30:58;;;;;;;3.00;1.10;;;;;;;10.19;100.00;95731.16;4831694;29;20214;-83
2022/10/25 01:33:33;;;;;;;3.80;0.97;;;;;;;10.23;100.00;95734.31;4827980;29;20202;-83
2022/10/25 01:36:10;;;;;;;3.17;1.27;;;;;;;10.26;100.00;95726.28;4831652;29;20185;-83
2022/10/25 01:39:08;;;;;;;7.53;1.43;;;;;;;10.29;100.00;95730.34;4843479;29;20226;-83
2022/10/25 01:41:40;;;;;;;2.00;1.10;;;;;;;10.29;100.00;95736.38;4835513;29;20307;-84
2022/10/25 01:44:31;;;;;;;5.83;1.30;;;;;;;10.34;100.00;95731.59;4847555;29;20197;-84
2022/10/25 01:47:15;;;;;;;4.30;1.40;;;;;;;10.38;100.00;95734.69;4823359;29;20247;-84
2022/10/25 01:49:47;;;;;;;2.60;0.90;;;;;;;10.39;100.00;95734.56;4841782;29;20801;-84
2022/10/25 01:52:14;;;;;;;4.87;1.73;;;;;;;10.42;100.00;95731.69;4822930;29;20198;-84
2022/10/25 01:54:40;;;;;;;1.93;0.90;;;;;;;10.50;100.00;95730.97;4844501;29;20226;-83
2022/10/25 01:57:16;;;;;;;2.73;1.40;;;;;;;10.49;100.00;95722.34;4849309;29;20198;-84
2022/10/25 02:00:13;;;;;;;3.07;1.30;;;;;;;10.59;100.00;95721.50;4816788;29;21128;-84
2022/10/25 02:02:48;;;;;;;1.70;1.40;;;;;;;10.70;100.00;95729.13;4839903;29;20208;-83
2022/10/25 02:05:22;;;;;;;3.40;1.20;;;;;;;10.68;100.00;95731.00;4826863;29;20196;-83
2022/10/25 02:08:22;;;;;;;1.87;1.10;;;;;;;10.81;100.00;95733.31;4843103;29;20218;-84
2022/10/25 02:11:28;;;;;;;6.17;1.50;;;;;;;10.81;100.00;95728.09;4832545;29;20205;-83
2022/10/25 02:14:19;;;;;;;3.80;1.30;;;;;;;10.87;100.00;95730.94;4868227;29;20212;-84
2022/10/25 02:16:49;;;;;;;6.37;1.30;;;;;;;10.86;100.00;95733.66;4865852;29;20747;-84
2022/10/25 02:19:20;;;;;;;3.43;1.33;;;;;;;10.87;100.00;95736.16;4860383;29;20638;-83
2022/10/25 02:21:46;;;;;;;6.43;1.50;;;;;;;10.94;100.00;95734.59;4854344;29;20269;-84
2022/10/25 02:24:16;;;;;;;4.07;1.60;;;;;;;10.91;100.00;95719.28;4865421;29;20212;-82
2022/10/25 02:26:42;;;;;;;5.83;1.67;;;;;;;10.95;100.00;95728.41;4860104;29;20192;-83
2022/10/25 02:29:08;;;;;;;4.73;1.40;;;;;;;10.95;100.00;95728.41;4870364;29;20255;-84
2022/10/25 02:31:35;;;;;;;3.57;1.20;;;;;;;10.97;100.00;95721.31;4873915;29;20204;-84
2022/10/25 02:34:00;;;;;;;5.23;1.40;;;;;;;10.90;100.00;95725.44;4845087;29;20580;-83
2022/10/25 02:36:25;;;;;;;4.30;1.30;;;;;;;10.92;100.00;95733.09;4872722;29;20208;-83
2022/10/25 02:38:51;;;;;;;6.20;1.40;;;;;;;10.94;100.00;95715.56;4864439;29;20202;-83
2022/10/25 02:41:18;;;;;;;3.70;1.27;;;;;;;10.92;100.00;95718.31;4866124;29;20219;-83
2022/10/25 02:43:43;;;;;;;9.10;1.77;;;;;;;10.96;100.00;95719.69;4840695;29;20707;-84
2022/10/25 02:46:11;;;;;;;4.13;1.70;;;;;;;10.97;100.00;95713.53;4856123;29;20215;-85
2022/10/25 02:48:37;;;;;;;2.97;1.47;;;;;;;11.01;100.00;95714.84;4856582;29;20213;-84
2022/10/25 02:51:03;;;;;;;5.20;1.53;;;;;;;10.97;100.00;95721.31;4836555;29;20335;-84
2022/10/25 02:53:28;;;;;;;7.37;1.73;;;;;;;10.96;100.00;95717.09;4844655;29;20689;-85
2022/10/25 02:56:04;;;;;;;4.60;1.30;;;;;;;10.97;100.00;95717.91;4830319;29;20292;-83
2022/10/25 02:58:31;;;;;;;5.63;1.23;;;;;;;10.91;100.00;95716.69;4850224;29;20795;-84
2022/10/25 03:00:57;;;;;;;8.27;1.60;;;;;;;10.97;100.00;95710.09;4843010;29;20232;-83
2022/10/25 03:03:22;;;;;;;3.27;1.40;;;;;;;11.02;100.00;95705.28;4853679;29;20178;-81
2022/10/25 03:05:48;;;;;;;5.00;1.40;;;;;;;10.99;100.00;95716.78;4850639;29;20239;-83
2022/10/25 03:08:13;;;;;;;5.20;1.40;;;;;;;10.96;100.00;95714.50;4850700;29;20193;-82
2022/10/25 03:10:38;;;;;;;4.73;1.70;;;;;;;11.00;100.00;95720.19;4853241;29;20234;-83
2022/10/25 03:13:04;;;;;;;7.13;1.50;;;;;;;10.94;100.00;95719.00;4855221;29;20230;-84
2022/10/25 03:15:29;;;;;;;6.53;1.30;;;;;;;11.00;100.00;95718.41;4851713;29;20200;-84
2022/10/25 03:17:54;;;;;;;6.87;1.47;;;;;;;11.02;100.00;95719.09;4816078;29;20553;-84
2022/10/25 03:20:19;;;;;;;5.47;1.40;;;;;;;10.98;100.00;95714.34;4838298;29;20330;-84
2022/10/25 03:22:45;;;;;;;4.90;1.37;;;;;;;10.92;100.00;95725.31;4831626;29;20252;-84
2022/10/25 03:25:10;;;;;;;2.63;1.20;;;;;;;10.85;100.00;95726.84;4832265;29;20205;-84
2022/10/25 03:27:35;;;;;;;5.83;1.50;;;;;;;10.76;100.00;95725.94;4832188;29;20674;-84
2022/10/25 03:30:01;;;;;;;19.47;2.90;;;;;;;10.72;100.00;95728.00;4848726;29;20213;-85
2022/10/25 03:32:26;;;;;;;5.73;1.40;;;;;;;10.69;100.00;95723.09;4834126;29;20206;-84
2022/10/25 03:34:51;;;;;;;3.60;1.27;;;;;;;10.70;100.00;95724.75;4809343;29;20652;-84
2022/10/25 03:37:16;;;;;;;2.57;1.50;;;;;;;10.73;100.00;95731.41;4833291;29;20604;-84
2022/10/25 03:39:42;;;;;;;5.57;1.47;;;;;;;10.66;100.00;95728.56;4844537;29;20217;-86
2022/10/25 03:42:07;;;;;;;4.10;1.53;;;;;;;10.62;100.00;95735.03;4848297;29;20197;-85
2022/10/25 03:44:32;;;;;;;4.97;1.20;;;;;;;10.65;100.00;95741.69;4834447;29;20197;-85
2022/10/25 03:46:58;;;;;;;4.20;1.30;;;;;;;10.63;100.00;95739.25;4822878;29;20616;-84
2022/10/25 03:49:25;;;;;;;3.73;1.60;;;;;;;10.63;100.00;95746.22;4811109;29;20687;-84
2022/10/25 03:51:50;;;;;;;3.13;1.27;;;;;;;10.66;100.00;95751.13;4826186;29;20189;-84
2022/10/25 03:54:15;;;;;;;4.07;1.57;;;;;;;10.65;100.00;95746.91;4850705;29;20202;-85
2022/10/25 03:56:40;;;;;;;3.43;1.40;;;;;;;10.72;100.00;95747.97;4832360;29;20242;-85
2022/10/25 03:59:06;;;;;;;7.70;2.23;;;;;;;10.72;100.00;95748.78;4831100;29;20602;-84
2022/10/25 04:01:31;;;;;;;4.97;1.83;;;;;;;10.72;100.00;95742.78;4853596;29;20296;-84
2022/10/25 04:03:56;;;;;;;12.57;2.77;;;;;;;10.70;100.00;95744.69;4820376;29;20202;-84
2022/10/25 04:06:21;;;;;;;5.83;2.33;;;;;;;10.73;100.00;95752.19;4822116;29;20201;-84
2022/10/25 04:08:47;;;;;;;6.67;2.97;;;;;;;10.71;100.00;95756.72;4826412;29;20203;-84
2022/10/25 04:11:12;;;;;;;7.53;3.23;;;;;;;10.81;100.00;95752.31;4835783;29;20662;-84
2022/10/25 04:13:37;;;;;;;10.37;3.70;;;;;;;10.78;100.00;95756.00;4850756;29;20194;-85
2022/10/25 04:16:07;;;;;;;6.23;2.63;;;;;;;10.77;100.00;95750.94;4844935;29;20197;-85
2022/10/25 04:18:32;;;;;;;4.53;2.27;;;;;;;10.86;100.00;95742.28;4831227;29;20728;-84
2022/10/25 04:20:57;;;;;;;5.17;2.17;;;;;;;10.84;100.00;95744.22;4830247;29;20217;-85
2022/10/25 04:23:23;;;;;;;7.10;3.17;;;;;;;10.83;100.00;95744.34;4839872;29;20209;-85
2022/10/25 04:25:48;;;;;;;6.10;3.00;;;;;;;10.86;100.00;95744.88;4837259;29;20572;-84
2022/10/25 04:28:14;;;;;;;12.17;3.00;;;;;;;10.80;100.00;95750.66;4837944;29;20200;-85
2022/10/25 04:30:39;;;;;;;9.33;3.50;;;;;;;10.80;100.00;95755.88;4849789;29;20210;-86
2022/10/25 04:33:04;;;;;;;10.93;2.97;;;;;;;10.82;100.00;95753.13;4848695;29;20208;-85
2022/10/25 04:35:30;;;;;;;8.57;2.23;;;;;;;10.80;100.00;95750.66;4822992;29;20206;-85
2022/10/25 04:37:56;;;;;;;5.13;2.70;;;;;;;10.80;100.00;95752.44;4847561;29;20205;-85
2022/10/25 04:40:21;;;;;;;6.37;2.30;;;;;;;10.78;100.00;95747.41;4851555;29;20240;-85
2022/10/25 04:42:47;;;;;;;8.80;1.90;;;;;;;10.84;100.00;95761.56;4852637;29;20549;-85
2022/10/25 04:45:12;;;;;;;7.37;2.43;;;;;;;10.86;100.00;95760.47;4834067;29;20194;-84
2022/10/25 04:47:37;;;;;;;6.53;2.07;;;;;;;10.80;100.00;95753.25;4841964;29;20201;-85
2022/10/25 04:50:03;;;;;;;5.97;1.30;;;;;;;10.74;100.00;95753.84;4847517;29;20280;-84
2022/10/25 04:52:28;;;;;;;3.97;1.30;;;;;;;10.76;100.00;95750.13;4823236;29;20204;-84
2022/10/25 04:54:54;;;;;;;5.87;1.50;;;;;;;10.68;100.00;95746.59;4853553;29;20744;-84
2022/10/25 04:57:19;;;;;;;5.17;1.37;;;;;;;10.71;100.00;95747.16;4838522;29;20194;-85
2022/10/25 04:59:44;;;;;;;4.60;1.20;;;;;;;10.67;100.00;95750.16;4835636;29;20601;-85
2022/10/25 05:02:11;;;;;;;7.43;1.43;;;;;;;10.67;100.00;95761.38;4833745;29;20209;-84
2022/10/25 05:04:55;;;;;;;4.77;1.37;;;;;;;10.72;100.00;95761.78;4821388;29;20214;-85
2022/10/25 05:11:21;;;;;;;8.50;2.13;;;;;;;10.91;100.00;95760.03;4836119;29;20796;-85
2022/10/25 05:13:47;;;;;;;3.37;1.47;;;;;;;10.99;100.00;95754.94;4860606;29;20751;-80
2022/10/25 05:16:25;;;;;;;7.60;1.43;;;;;;;11.06;100.00;95764.63;4867614;29;20211;-85
2022/10/25 05:18:54;;;;;;;2.23;1.10;;;;;;;11.18;100.00;95760.03;4851003;29;20490;-86
2022/10/25 05:21:22;;;;;;;6.90;1.47;;;;;;;11.19;100.00;95755.66;4866599;29;20227;-85
2022/10/25 05:23:58;;;;;;;6.50;1.40;;;;;;;11.21;100.00;95754.53;4863875;29;20238;-86
2022/10/25 05:26:27;;;;;;;6.10;1.43;;;;;;;11.29;100.00;95757.22;4865410;29;20694;-86
2022/10/25 05:28:54;;;;;;;5.63;1.20;;;;;;;11.24;100.00;95769.03;4876883;29;20234;-86
2022/10/25 05:31:24;;;;;;;3.80;1.40;;;;;;;11.26;100.00;95765.31;4869560;29;20198;-86
2022/10/25 05:33:51;;;;;;;7.03;1.37;;;;;;;11.22;100.00;95776.13;4880204;29;20187;-86
2022/10/25 05:36:17;;;;;;;4.47;1.30;;;;;;;11.24;100.00;95766.44;4870884;29;20203;-86
2022/10/25 05:38:46;;;;;;;4.20;1.23;;;;;;;11.21;100.00;95767.53;4864268;29;20261;-86
2022/10/25 05:41:17;;;;;;;4.47;1.33;;;;;;;11.21;100.00;95764.94;4877265;29;20211;-87
2022/10/25 05:43:52;;;;;;;4.40;1.60;;;;;;;11.28;100.00;95765.16;4858710;29;20210;-86
2022/10/25 05:46:20;;;;;;;4.20;1.17;;;;;;;11.30;100.00;95766.66;4887420;29;20187;-87
2022/10/25 05:49:15;;;;;;;4.80;1.57;;;;;;;11.26;100.00;95761.91;4847687;29;20245;-86
2022/10/25 05:51:40;;;;;;;4.13;1.33;;;;;;;11.29;100.00;95762.41;4825148;29;20615;-82
2022/10/25 05:54:10;;;;;;;2.30;1.30;;;;;;;11.25;100.00;95763.69;4853788;29;20199;-82
2022/10/25 05:56:36;;;;;;;4.03;1.40;;;;;;;11.22;100.00;95765.75;4838293;29;20197;-83
2022/10/25 05:59:37;;;;;;;7.07;1.30;;;;;;;11.23;100.00;95770.00;4831597;29;20592;-87
2022/10/25 06:02:10;;;;;;;4.27;1.43;;;;;;;11.25;100.00;95786.28;4859160;29;20300;-85
2022/10/25 06:05:02;;;;;;;3.30;1.10;;;;;;;11.27;100.00;95766.13;4839788;29;20212;-86
2022/10/25 06:07:49;;;;;;;;;;;;;;;;;;;;;
2022/10/25 06:13:50;;;;;;;8.73;1.50;;;;;;;11.22;100.00;95787.38;4858499;29;20629;-86
2022/10/25 06:16:25;;;;;;;4.83;1.30;;;;;;;11.32;100.00;95787.31;4826972;29;20206;-85
2022/10/25 06:22:42;;;;;;;5.60;1.43;;;;;;;11.57;100.00;95797.03;4862325;29;20220;-85
2022/10/25 06:25:08;;;;;;;3.50;1.30;;;;;;;11.59;100.00;95797.69;4867919;29;20286;-85
2022/10/25 06:27:46;;;;;;;7.27;2.23;;;;;;;11.68;100.00;95793.38;4863367;29;20629;-85
2022/10/25 06:45:14;;;;;;;;;;;;;;;;;;;;;
2022/10/25 08:11:53;;;;;;;7.87;2.73;;;;;;;13.13;95.24;95854.50;4834753;29;20320;-84
2022/10/25 09:52:53;;;;;;;6.97;2.05;;;;;;;14.91;76.94;95900.25;4858684;29;20229;-86
2022/10/25 09:55:40;;;;;;;3.10;1.10;;;;;;;14.62;77.91;95898.16;4861135;29;20228;-85
2022/10/25 09:58:10;;;;;;;5.90;1.30;;;;;;;14.59;77.58;95898.47;4840731;29;20673;-86
2022/10/25 10:00:37;;;;;;;3.47;0.90;;;;;;;14.61;77.60;95901.75;4854826;29;20225;-86
2022/10/25 10:03:03;;;;;;;6.20;1.08;;;;;;;14.74;77.87;95899.44;4831349;29;20264;-87
2022/10/25 10:05:29;;;;;;;4.53;0.97;;;;;;;14.77;77.65;95889.66;4831174;29;20292;-85
2022/10/25 10:07:54;;;;;;;11.10;1.87;;;;;;;14.74;77.37;95896.00;4836018;29;20201;-86
2022/10/25 11:07:20;;;;;;;6.93;1.20;;;;;;;16.31;70.95;95856.78;4829226;29;20391;-86
2022/10/25 11:09:45;;;;;;;5.78;1.60;;;;;;;16.42;69.65;95856.38;4855519;23;20374;-87
2022/10/25 11:12:13;;;;;;;3.33;1.08;;;;;;;16.53;68.88;95860.41;4864489;29;20489;-85
2022/10/25 11:14:39;;;;;;;5.25;1.38;;;;;;;16.45;68.70;95858.66;4856393;29;20181;-86
2022/10/25 11:17:26;;;;;;;2.33;1.02;;;;;;;16.60;67.39;95858.69;4860759;29;20216;-86
2022/10/25 11:20:00;;;;;;;1.92;0.90;;;;;;;16.85;64.25;95854.06;4858211;29;20220;-86
2022/10/25 11:22:39;;;;;;;4.03;1.75;;;;;;;17.22;64.70;95861.88;4847589;29;20260;-86
2022/10/25 11:25:30;;;;;;;6.63;1.05;;;;;;;17.30;65.15;95868.84;4860696;29;20192;-87
2022/10/25 11:28:08;;;;;;;4.57;1.25;;;;;;;17.34;65.64;95864.06;4846260;29;20197;-85
2022/10/25 11:31:20;;;;;;;4.45;1.23;;;;;;;17.54;66.22;95865.13;4843762;29;20681;-85
2022/10/25 11:34:27;;;;;;;3.92;1.30;;;;;;;17.22;67.69;95863.69;4847805;29;20322;-86
2022/10/25 11:37:09;;;;;;;2.28;0.95;;;;;;;16.96;68.40;95861.50;4860100;29;20199;-86
2022/10/25 11:39:44;;;;;;;6.10;1.20;;;;;;;16.67;68.44;95863.03;4854358;29;20224;-86
2022/10/25 11:42:34;;;;;;;4.55;1.27;;;;;;;16.61;69.72;95868.22;4844904;29;20216;-86
2022/10/25 11:45:21;;;;;;;7.95;1.50;;;;;;;16.61;68.43;95871.63;4861881;29;20200;-86
2022/10/25 11:48:05;;;;;;;4.35;0.93;;;;;;;16.58;69.85;95869.34;4850559;29;20345;-87
2022/10/25 11:50:51;;;;;;;4.28;1.20;;;;;;;16.60;69.66;95862.13;4846892;29;20713;-86
2022/10/25 11:53:25;;;;;;;4.30;1.70;;;;;;;16.47;71.22;95861.91;4845922;29;20205;-86
2022/10/25 11:55:59;;;;;;;3.63;1.33;;;;;;;16.70;71.14;95861.94;4864866;29;20192;-86
2022/10/25 11:58:35;;;;;;;4.38;1.45;;;;;;;16.71;71.68;95866.19;4842396;29;20241;-87
2022/10/25 12:01:32;;;;;;;7.43;1.48;;;;;;;17.04;70.90;95868.47;4836515;29;20237;-86
2022/10/25 12:04:22;;;;;;;5.60;1.90;;;;;;;16.97;70.93;95868.41;4847403;29;20271;-86
2022/10/25 12:06:53;;;;;;;3.22;1.25;;;;;;;17.04;71.22;95877.16;4848625;29;20257;-85
2022/10/25 12:09:37;;;;;;;7.95;1.77;;;;;;;16.99;69.90;95877.72;4831198;29;20213;-86
2022/10/25 12:12:13;;;;;;;5.32;1.45;;;;;;;16.75;69.54;95869.25;4842732;29;20268;-86
2022/10/25 12:14:42;;;;;;;4.88;1.63;;;;;;;16.73;70.58;95871.25;4839564;29;20193;-81
2022/10/25 12:17:32;;;;;;;3.42;1.38;;;;;;;16.41;72.29;95873.09;4843432;29;20646;-86
2022/10/25 12:20:01;;;;;;;6.28;1.42;;;;;;;16.78;70.68;95868.88;4833335;29;20226;-86
2022/10/25 12:22:30;;;;;;;4.28;1.50;;;;;;;16.82;71.05;95867.56;4842105;29;20636;-85
2022/10/25 12:24:59;;;;;;;5.22;1.67;;;;;;;16.54;71.38;95873.34;4842397;29;20198;-85
2022/10/25 12:27:25;;;;;;;3.97;1.80;;;;;;;16.32;72.00;95871.53;4844364;29;20235;-86
2022/10/25 12:30:14;;;;;;;2.67;1.40;;;;;;;16.41;71.52;95871.28;4843981;29;20217;-86
2022/10/25 12:32:42;;;;;;;6.13;1.60;;;;;;;16.41;71.55;95862.59;4837481;29;20204;-86
2022/10/25 12:35:40;;;;;;;6.78;1.58;;;;;;;16.24;73.17;95871.59;4855871;29;20185;-86
2022/10/25 12:38:20;;;;;;;5.22;1.42;;;;;;;16.29;72.99;95851.72;4825287;29;20207;-85
2022/10/25 12:40:50;;;;;;;4.65;1.55;;;;;;;16.21;73.94;95848.34;4828937;29;20229;-85
2022/10/25 12:43:22;;;;;;;7.32;1.52;;;;;;;16.53;71.84;95848.13;4857824;29;20288;-86
2022/10/25 12:45:56;;;;;;;7.15;1.85;;;;;;;16.69;71.27;95841.91;4827652;29;20193;-86
2022/10/25 12:48:31;;;;;;;5.72;1.67;;;;;;;17.01;71.21;95845.22;4844753;29;20197;-86
2022/10/25 12:51:09;;;;;;;4.10;1.50;;;;;;;17.06;70.42;95841.06;4860526;29;20340;-85
2022/10/25 12:53:34;;;;;;;5.30;1.58;;;;;;;16.99;69.89;95834.91;4863938;29;20185;-86
2022/10/25 12:56:33;;;;;;;3.85;1.50;;;;;;;17.07;67.85;95836.66;4862775;29;20190;-87
2022/10/25 13:00:03;;;;;;;6.60;1.70;;;;;;;17.07;68.31;95839.25;4843321;29;20197;-87
2022/10/25 13:02:50;;;;;;;4.65;1.77;;;;;;;16.73;67.77;95835.34;4833634;29;20211;-89
2022/10/25 13:05:38;;;;;;;2.15;0.98;;;;;;;16.89;68.55;95837.81;4857357;29;20580;-88
2022/10/25 13:08:12;;;;;;;6.35;1.55;;;;;;;17.16;68.32;95835.56;4856975;29;20189;-89
2022/10/25 13:10:49;;;;;;;2.78;1.30;;;;;;;17.19;69.58;95846.50;4840443;29;20224;-88
2022/10/25 13:13:32;;;;;;;4.88;1.60;;;;;;;17.06;69.63;95840.25;4828761;29;20234;-86
2022/10/25 13:16:00;;;;;;;4.10;1.50;;;;;;;16.91;68.71;95841.06;4857844;29;20245;-85
2022/10/25 13:18:34;;;;;;;4.68;1.33;;;;;;;17.04;67.78;95837.78;4844072;29;20221;-86
2022/10/25 13:21:06;;;;;;;5.40;1.30;;;;;;;16.83;69.43;95830.66;4859671;29;20216;-85
2022/10/25 13:23:41;;;;;;;1.92;1.45;;;;;;;16.53;70.89;95828.94;4826403;29;20215;-85
2022/10/25 13:26:19;;;;;;;4.95;1.27;;;;;;;16.46;69.64;95841.13;4841150;29;20188;-87
2022/10/25 13:28:47;;;;;;;5.28;1.90;;;;;;;16.21;70.79;95835.25;4828495;29;20196;-86
2022/10/25 13:31:34;;;;;;;2.60;1.35;;;;;;;16.36;69.18;95836.94;4859925;29;20249;-85
2022/10/25 13:34:11;;;;;;;4.88;1.27;;;;;;;16.54;68.20;95839.25;4845442;29;20638;-85
2022/10/25 13:36:50;;;;;;;5.20;1.63;;;;;;;16.65;69.02;95841.44;4843165;29;20650;-86
2022/10/25 13:39:22;;;;;;;5.30;1.60;;;;;;;16.90;70.41;95826.31;4845790;29;20817;-87
2022/10/25 13:41:47;;;;;;;7.25;1.45;;;;;;;16.96;69.77;95822.97;4834172;29;20217;-87
2022/10/25 13:44:23;;;;;;;4.80;1.30;;;;;;;16.78;69.17;95822.50;4828109;29;20193;-87
2022/10/25 13:46:49;;;;;;;5.07;1.02;;;;;;;16.99;67.98;95821.81;4826569;29;20201;-86
2022/10/25 13:49:33;;;;;;;3.20;1.00;;;;;;;17.15;67.78;95812.94;4823886;29;20215;-86
2022/10/25 13:52:04;;;;;;;3.28;1.23;;;;;;;17.09;67.75;95816.28;4835878;29;20197;-87
2022/10/25 13:54:56;;;;;;;2.55;1.00;;;;;;;17.07;67.53;95815.66;4836957;29;20662;-86
2022/10/25 13:57:46;;;;;;;4.50;1.40;;;;;;;17.05;68.50;95813.22;4843198;29;20201;-86
2022/10/25 14:00:25;;;;;;;4.07;1.30;;;;;;;17.06;66.34;95825.34;4845060;29;20217;-84
2022/10/25 14:03:09;;;;;;;4.38;1.80;;;;;;;16.63;67.59;95816.41;4857242;29;20256;-84
2022/10/25 14:05:55;;;;;;;5.78;1.30;;;;;;;16.77;66.34;95822.66;4856783;29;20189;-86
2022/10/25 14:08:38;;;;;;;3.50;1.10;;;;;;;16.92;66.68;95813.00;4840599;29;20204;-86
2022/10/25 14:11:13;;;;;;;4.72;1.40;;;;;;;17.09;66.35;95809.22;4840153;29;20704;-86
2022/10/25 14:13:54;;;;;;;3.45;1.08;;;;;;;17.25;65.17;95816.91;4839720;29;20196;-86
2022/10/25 14:16:27;;;;;;;1.98;0.90;;;;;;;17.31;65.27;95810.09;4840509;29;20253;-86
2022/10/25 14:18:54;;;;;;;1.60;0.80;;;;;;;17.04;59.42;95801.06;4854960;29;20509;-86
2022/10/25 14:21:19;;;;;;;2.22;0.90;;;;;;;17.13;61.17;95807.84;4844350;29;20729;-86
2022/10/25 14:23:47;;;;;;;2.30;0.73;;;;;;;17.15;62.10;95802.44;4838002;29;20197;-86
2022/10/25 14:26:14;;;;;;;2.85;1.15;;;;;;;16.65;64.58;95804.72;4840027;29;20693;-86
2022/10/25 14:28:40;;;;;;;3.22;0.93;;;;;;;16.95;63.46;95807.41;4831816;29;20276;-85
2022/10/25 14:31:05;;;;;;;2.55;1.30;;;;;;;17.03;63.85;95806.50;4847632;29;20247;-85
2022/10/25 14:33:36;;;;;;;3.88;1.70;;;;;;;16.92;65.18;95803.34;4842820;29;20189;-85
2022/10/25 14:36:04;;;;;;;2.47;1.02;;;;;;;16.89;64.45;95803.72;4848030;29;20197;-86
2022/10/25 14:38:30;;;;;;;3.95;0.95;;;;;;;16.76;64.64;95798.25;4855932;29;20224;-85
2022/10/25 14:41:00;;;;;;;2.40;1.60;;;;;;;16.76;64.40;95798.25;4840352;29;20225;-85
2022/10/25 14:43:34;;;;;;;5.07;1.10;;;;;;;16.61;64.73;95795.59;4827982;29;20197;-85
2022/10/25 14:46:14;;;;;;;4.63;1.10;;;;;;;16.72;65.76;95797.00;4838754;29;20201;-85
2022/10/25 14:48:45;;;;;;;3.10;1.20;;;;;;;16.64;65.42;95799.66;4838655;29;20559;-85
2022/10/25 14:51:27;;;;;;;6.10;1.33;;;;;;;16.60;66.09;95795.75;4838700;29;20220;-85
2022/10/25 14:54:07;;;;;;;1.92;1.00;;;;;;;16.55;67.74;95787.63;4820269;29;20193;-85
2022/10/25 14:56:39;;;;;;;4.22;1.20;;;;;;;16.58;67.68;95792.50;4823913;29;20549;-86
2022/10/25 14:59:05;;;;;;;2.42;1.33;;;;;;;16.46;67.61;95792.13;4823009;29;20206;-85
2022/10/25 15:01:31;;;;;;;3.35;1.25;;;;;;;16.47;68.25;95782.47;4841302;29;20201;-85
2022/10/25 15:03:58;;;;;;;3.50;1.20;;;;;;;16.38;67.53;95792.22;4840922;29;20582;-85
2022/10/25 15:06:28;;;;;;;1.83;1.20;;;;;;;16.31;66.20;95778.19;4825481;29;20209;-86
2022/10/25 15:08:59;;;;;;;4.40;1.45;;;;;;;16.21;67.27;95775.00;4843292;29;20197;-86
2022/10/25 15:11:24;;;;;;;4.90;1.30;;;;;;;16.19;67.67;95769.13;4855033;29;20253;-85
2022/10/25 15:13:52;;;;;;;3.60;1.40;;;;;;;16.15;68.34;95766.03;4823452;29;20184;-85
2022/10/25 15:16:33;;;;;;;1.98;1.10;;;;;;;16.06;70.54;95775.75;4855255;29;20189;-86
2022/10/25 15:19:03;;;;;;;3.38;0.98;;;;;;;15.97;70.34;95786.47;4835757;29;20190;-82
2022/10/25 15:21:49;;;;;;;5.10;1.33;;;;;;;15.87;71.12;95778.84;4848113;29;20209;-85
2022/10/25 15:24:20;;;;;;;5.25;1.15;;;;;;;15.82;70.76;95783.81;4857778;29;20192;-85
2022/10/25 15:27:04;;;;;;;2.10;1.20;;;;;;;15.72;71.32;95780.56;4840316;29;20201;-86
2022/10/25 15:29:39;;;;;;;2.53;1.25;;;;;;;15.55;72.29;95783.28;4840629;29;20312;-86
2022/10/25 15:32:04;;;;;;;4.35;1.27;;;;;;;15.45;72.82;95787.09;4840164;29;20189;-86
2022/10/25 15:34:29;;;;;;;6.20;1.35;;;;;;;15.36;73.92;95793.34;4844902;29;20592;-85
2022/10/25 15:36:54;;;;;;;4.10;1.52;;;;;;;15.26;74.67;95793.56;4827583;29;20215;-85
2022/10/25 15:39:31;;;;;;;4.40;2.80;;;;;;;15.16;75.37;95790.34;4846835;29;20213;-85
2022/10/25 15:41:56;;;;;;;6.85;3.70;;;;;;;15.02;77.62;95792.69;4882019;29;20288;-85
2022/10/25 15:44:21;;;;;;;7.20;3.78;;;;;;;14.90;78.73;95794.03;4879575;29;20237;-85
2022/10/25 15:46:47;;;;;;;6.53;3.10;;;;;;;14.81;78.81;95789.78;4864617;29;20237;-86
2022/10/25 15:49:13;;;;;;;4.03;2.97;;;;;;;14.70;79.05;95788.34;4874415;29;20284;-85
2022/10/25 15:51:41;;;;;;;5.47;3.15;;;;;;;14.64;79.85;95780.38;4828218;29;20196;-84
2022/10/25 15:54:17;;;;;;;8.07;4.80;;;;;;;14.47;81.96;95787.41;4843226;29;20209;-84
2022/10/25 15:56:43;;;;;;;5.90;3.95;;;;;;;14.34;81.98;95782.69;4844143;29;20189;-84
2022/10/25 15:59:10;;;;;;;8.65;4.72;;;;;;;14.23;82.65;95783.03;4851216;29;20217;-85
2022/10/25 16:01:36;;;;;;;6.80;3.42;;;;;;;14.13;83.03;95784.97;4829195;29;20201;-86
2022/10/25 16:04:02;;;;;;;3.45;3.13;;;;;;;14.01;83.64;95781.06;4858900;29;20241;-86
2022/10/25 16:06:27;;;;;;;3.55;2.53;;;;;;;13.88;84.54;95774.53;4851728;29;20193;-85
2022/10/25 16:08:52;;;;;;;3.28;2.30;;;;;;;13.78;84.99;95779.09;4842757;29;20232;-86
2022/10/25 16:11:19;;;;;;;4.50;2.00;;;;;;;13.67;86.16;95778.56;4842948;29;20242;-86
2022/10/25 16:13:46;;;;;;;4.75;2.20;;;;;;;13.54;86.39;95776.44;4843063;29;20568;-84
2022/10/25 16:16:27;;;;;;;4.78;1.90;;;;;;;13.42;86.96;95780.31;4833157;29;20189;-87
2022/10/25 16:18:52;;;;;;;2.45;1.48;;;;;;;13.31;87.97;95782.22;4840642;29;20185;-86
2022/10/25 16:21:19;;;;;;;4.72;1.50;;;;;;;13.23;88.51;95778.78;4854024;29;20249;-86
2022/10/25 16:23:45;;;;;;;2.70;1.55;;;;;;;13.14;89.08;95780.53;4839826;29;20682;-86